createdAt,value
2023-04-27T00:00:56.959Z,174.33
2023-04-27T00:01:57.023Z,172.91
2023-04-27T00:02:57.174Z,174.29
2023-04-27T00:03:57.153Z,174.50
2023-04-27T00:04:57.263Z,174.07
2023-04-27T00:05:57.211Z,171.93
2023-04-27T00:06:57.039Z,174.58
2023-04-27T00:07:57.069Z,172.44
2023-04-27T00:08:57.065Z,173.77
2023-04-27T00:09:57.068Z,174.29
2023-04-27T00:10:57.073Z,174.89
2023-04-27T00:11:58.240Z,172.15
2023-04-27T00:12:57.116Z,175.12
2023-04-27T00:13:57.119Z,174.63
2023-04-27T00:14:57.115Z,173.09
2023-04-27T00:15:57.187Z,172.82
2023-04-27T00:16:57.131Z,173.40
2023-04-27T00:17:57.830Z,174.17
2023-04-27T00:18:57.162Z,173.82
2023-04-27T00:19:57.162Z,174.59
2023-04-27T00:20:57.168Z,174.05
2023-04-27T00:21:57.202Z,176.03
2023-04-27T00:22:57.751Z,174.95
2023-04-27T00:23:57.176Z,174.85
2023-04-27T00:24:57.182Z,174.78
2023-04-27T00:25:57.200Z,174.61
2023-04-27T00:26:57.209Z,174.08
2023-04-27T00:27:57.227Z,173.80
2023-04-27T00:28:57.228Z,173.11
2023-04-27T00:29:57.244Z,174.72
2023-04-27T00:30:57.250Z,173.82
2023-04-27T00:31:57.851Z,175.00
2023-04-27T00:32:57.298Z,172.74
2023-04-27T00:33:57.656Z,173.08
2023-04-27T00:34:57.290Z,175.14
2023-04-27T00:35:57.315Z,175.10
2023-04-27T00:36:57.339Z,174.60
2023-04-27T00:37:57.343Z,173.28
2023-04-27T00:38:57.350Z,175.67
2023-04-27T00:39:57.356Z,174.97
2023-04-27T00:40:57.357Z,175.08
2023-04-27T00:41:57.362Z,175.09
2023-04-27T00:42:57.362Z,174.56
2023-04-27T00:43:57.363Z,175.21
2023-04-27T00:44:57.387Z,174.63
2023-04-27T00:45:57.464Z,172.77
2023-04-27T00:46:57.437Z,174.52
2023-04-27T00:47:57.518Z,173.01
2023-04-27T00:48:57.453Z,174.31
2023-04-27T00:49:57.475Z,174.15
2023-04-27T00:50:57.466Z,173.27
2023-04-27T00:51:57.477Z,174.32
2023-04-27T00:52:58.348Z,172.70
2023-04-27T00:53:57.464Z,174.00
2023-04-27T00:54:57.469Z,174.33
2023-04-27T00:55:57.479Z,174.32
2023-04-27T00:56:57.477Z,174.94
2023-04-27T00:57:57.495Z,174.34
2023-04-27T00:58:57.493Z,175.51
2023-04-27T00:59:57.502Z,176.07
2023-04-27T01:00:58.758Z,172.89
2023-04-27T01:01:57.511Z,174.17
2023-04-27T01:02:57.595Z,173.30
2023-04-27T01:03:58.839Z,172.35
2023-04-27T01:04:57.556Z,173.34
2023-04-27T01:05:57.894Z,174.70
2023-04-27T01:06:57.609Z,172.29
2023-04-27T01:07:57.651Z,175.11
2023-04-27T01:08:57.986Z,174.28
2023-04-27T01:09:57.673Z,173.88
2023-04-27T01:10:57.675Z,174.05
2023-04-27T01:11:57.673Z,174.17
2023-04-27T01:12:57.669Z,174.06
2023-04-27T01:13:57.688Z,173.81
2023-04-27T01:14:57.702Z,175.98
2023-04-27T01:15:57.710Z,172.30
2023-04-27T01:16:57.728Z,175.56
2023-04-27T01:17:57.754Z,174.02
2023-04-27T01:18:57.729Z,174.03
2023-04-27T01:19:57.746Z,175.28
2023-04-27T01:20:57.741Z,176.09
2023-04-27T01:21:57.777Z,174.20
2023-04-27T01:22:57.791Z,176.21
2023-04-27T01:23:57.798Z,176.45
2023-04-27T01:24:57.802Z,176.67
2023-04-27T01:25:57.801Z,176.27
2023-04-27T01:26:57.813Z,174.09
2023-04-27T01:27:57.827Z,175.05
2023-04-27T01:28:57.840Z,174.07
2023-04-27T01:29:57.845Z,176.17
2023-04-27T01:30:57.920Z,176.05
2023-04-27T01:31:57.855Z,178.14
2023-04-27T01:32:57.911Z,176.77
2023-04-27T01:33:57.871Z,177.36
2023-04-27T01:34:57.885Z,177.40
2023-04-27T01:35:57.865Z,175.79
2023-04-27T01:36:57.867Z,176.39
2023-04-27T01:37:57.892Z,176.75
2023-04-27T01:38:57.889Z,175.52
2023-04-27T01:39:57.911Z,174.93
2023-04-27T01:40:59.772Z,176.92
2023-04-27T01:41:58.647Z,176.05
2023-04-27T01:42:58.301Z,175.72
2023-04-27T01:43:57.956Z,178.03
2023-04-27T01:44:57.967Z,176.62
2023-04-27T01:45:57.997Z,177.06
2023-04-27T01:46:58.000Z,175.75
2023-04-27T01:47:58.047Z,176.47
2023-04-27T01:48:58.009Z,175.93
2023-04-27T01:49:58.017Z,175.92
2023-04-27T01:50:59.283Z,176.16
2023-04-27T01:51:58.041Z,175.69
2023-04-27T01:52:58.329Z,175.39
2023-04-27T01:53:58.077Z,177.83
2023-04-27T01:54:58.171Z,178.85
2023-04-27T01:55:58.112Z,177.13
2023-04-27T01:56:58.138Z,177.55
2023-04-27T01:57:58.168Z,176.92
2023-04-27T01:58:58.186Z,176.85
2023-04-27T01:59:58.210Z,178.64
2023-04-27T02:00:58.213Z,178.09
2023-04-27T02:01:58.249Z,176.73
2023-04-27T02:02:58.340Z,177.87
2023-04-27T02:03:58.371Z,176.17
2023-04-27T02:05:00.237Z,178.20
2023-04-27T02:05:58.265Z,175.81
2023-04-27T02:06:58.290Z,177.05
2023-04-27T02:07:58.318Z,178.29
2023-04-27T02:08:58.339Z,178.44
2023-04-27T02:09:58.369Z,179.23
2023-04-27T02:10:58.389Z,179.19
2023-04-27T02:11:58.394Z,177.96
2023-04-27T02:12:58.429Z,179.45
2023-04-27T02:13:59.202Z,177.25
2023-04-27T02:14:58.412Z,177.88
2023-04-27T02:15:58.453Z,177.78
2023-04-27T02:16:58.520Z,179.46
2023-04-27T02:17:58.551Z,176.91
2023-04-27T02:18:58.513Z,177.99
2023-04-27T02:19:58.511Z,178.38
2023-04-27T02:20:58.514Z,177.33
2023-04-27T02:21:58.521Z,178.71
2023-04-27T02:22:58.544Z,178.09
2023-04-27T02:23:58.593Z,177.73
2023-04-27T02:24:58.616Z,179.10
2023-04-27T02:25:58.636Z,177.72
2023-04-27T02:26:58.662Z,177.82
2023-04-27T02:27:58.678Z,178.84
2023-04-27T02:28:58.685Z,180.71
2023-04-27T02:29:58.702Z,176.99
2023-04-27T02:30:59.763Z,178.52
2023-04-27T02:31:58.806Z,177.74
2023-04-27T02:32:59.053Z,178.49
2023-04-27T02:33:58.739Z,179.49
2023-04-27T02:34:58.759Z,176.34
2023-04-27T02:35:58.769Z,177.03
2023-04-27T02:36:58.799Z,179.52
2023-04-27T02:37:58.804Z,179.00
2023-04-27T02:38:58.827Z,179.61
2023-04-27T02:40:00.701Z,178.54
2023-04-27T02:40:58.849Z,178.54
2023-04-27T02:41:58.866Z,178.15
2023-04-27T02:42:58.885Z,178.91
2023-04-27T02:43:58.905Z,177.11
2023-04-27T02:44:58.893Z,177.31
2023-04-27T02:45:58.869Z,177.60
2023-04-27T02:46:58.911Z,178.63
2023-04-27T02:47:59.339Z,178.31
2023-04-27T02:48:58.820Z,178.49
2023-04-27T02:49:58.806Z,179.11
2023-04-27T02:50:58.794Z,176.44
2023-04-27T02:51:58.778Z,176.59
2023-04-27T02:52:59.482Z,178.93
2023-04-27T02:53:58.747Z,177.43
2023-04-27T02:54:58.739Z,179.74
2023-04-27T02:55:58.730Z,181.56
2023-04-27T02:56:58.714Z,176.21
2023-04-27T02:57:58.698Z,178.16
2023-04-27T02:58:58.685Z,178.55
2023-04-27T02:59:58.723Z,182.46
2023-04-27T03:00:58.777Z,179.50
2023-04-27T03:01:58.749Z,178.10
2023-04-27T03:02:58.847Z,180.57
2023-04-27T03:03:58.817Z,178.38
2023-04-27T03:04:59.496Z,180.38
2023-04-27T03:05:58.775Z,182.12
2023-04-27T03:06:58.775Z,180.69
2023-04-27T03:07:58.787Z,179.36
2023-04-27T03:08:58.790Z,181.73
2023-04-27T03:09:58.807Z,182.52
2023-04-27T03:10:58.817Z,180.27
2023-04-27T03:11:58.837Z,180.79
2023-04-27T03:12:58.850Z,179.92
2023-04-27T03:13:58.868Z,180.67
2023-04-27T03:14:58.916Z,181.50
2023-04-27T03:15:58.958Z,183.21
2023-04-27T03:16:59.007Z,180.58
2023-04-27T03:17:59.010Z,184.01
2023-04-27T03:18:58.976Z,184.33
2023-04-27T03:19:58.986Z,184.90
2023-04-27T03:20:58.999Z,185.11
2023-04-27T03:21:59.005Z,184.19
2023-04-27T03:22:59.001Z,186.29
2023-04-27T03:23:59.012Z,184.67
2023-04-27T03:24:59.021Z,188.59
2023-04-27T03:25:59.040Z,186.48
2023-04-27T03:26:59.047Z,185.29
2023-04-27T03:28:00.323Z,184.89
2023-04-27T03:28:59.065Z,186.32
2023-04-27T03:29:59.056Z,185.00
2023-04-27T03:30:59.069Z,184.49
2023-04-27T03:31:59.116Z,186.16
2023-04-27T03:32:59.135Z,189.22
2023-04-27T03:33:59.106Z,186.37
2023-04-27T03:34:59.121Z,188.97
2023-04-27T03:35:59.136Z,187.69
2023-04-27T03:36:59.136Z,189.38
2023-04-27T03:37:59.153Z,189.21
2023-04-27T03:38:59.149Z,189.13
2023-04-27T03:39:59.183Z,190.25
2023-04-27T03:40:59.193Z,187.99
2023-04-27T03:41:59.211Z,188.41
2023-04-27T03:42:59.324Z,189.37
2023-04-27T03:43:59.197Z,188.55
2023-04-27T03:44:59.251Z,190.88
2023-04-27T03:45:59.275Z,189.30
2023-04-27T03:47:00.288Z,191.94
2023-04-27T03:47:59.292Z,190.70
2023-04-27T03:48:59.270Z,190.35
2023-04-27T03:49:59.261Z,187.47
2023-04-27T03:50:59.280Z,188.04
2023-04-27T03:51:59.281Z,189.39
2023-04-27T03:53:00.377Z,191.96
2023-04-27T03:53:59.318Z,190.70
2023-04-27T03:54:59.343Z,189.19
2023-04-27T03:55:59.368Z,189.45
2023-04-27T03:56:59.366Z,189.39
2023-04-27T03:57:59.383Z,190.28
2023-04-27T03:58:59.395Z,190.32
2023-04-27T03:59:59.396Z,189.17
2023-04-27T04:00:59.405Z,188.43
2023-04-27T04:02:01.139Z,191.39
2023-04-27T04:02:59.560Z,190.68
2023-04-27T04:03:59.672Z,192.04
2023-04-27T04:04:59.554Z,191.43
2023-04-27T04:05:59.461Z,190.46
2023-04-27T04:07:01.461Z,189.47
2023-04-27T04:07:59.478Z,191.91
2023-04-27T04:08:59.487Z,194.01
2023-04-27T04:09:59.528Z,192.99
2023-04-27T04:10:59.587Z,195.61
2023-04-27T04:11:59.572Z,192.54
2023-04-27T04:12:59.612Z,193.23
2023-04-27T04:13:59.604Z,190.75
2023-04-27T04:14:59.650Z,190.15
2023-04-27T04:15:59.676Z,191.02
2023-04-27T04:16:59.654Z,194.58
2023-04-27T04:17:59.682Z,189.85
2023-04-27T04:18:59.650Z,193.55
2023-04-27T04:19:59.678Z,193.47
2023-04-27T04:20:59.700Z,194.32
2023-04-27T04:21:59.742Z,195.08
2023-04-27T04:22:59.732Z,194.01
2023-04-27T04:23:59.732Z,196.72
2023-04-27T04:24:59.760Z,193.93
2023-04-27T04:25:59.772Z,193.95
2023-04-27T04:26:59.779Z,195.92
2023-04-27T04:27:59.805Z,193.72
2023-04-27T04:28:59.808Z,195.11
2023-04-27T04:29:59.810Z,194.69
2023-04-27T04:30:59.871Z,193.32
2023-04-27T04:31:59.837Z,193.62
2023-04-27T04:32:59.890Z,192.78
2023-04-27T04:33:59.851Z,194.23
2023-04-27T04:34:59.848Z,194.17
2023-04-27T04:35:59.869Z,193.23
2023-04-27T04:36:59.891Z,195.43
2023-04-27T04:37:59.908Z,194.97
2023-04-27T04:38:59.906Z,196.15
2023-04-27T04:39:59.907Z,194.53
2023-04-27T04:40:59.921Z,195.98
2023-04-27T04:41:59.917Z,194.19
2023-04-27T04:42:59.928Z,192.65
2023-04-27T04:44:00.727Z,193.29
2023-04-27T04:44:59.940Z,194.44
2023-04-27T04:45:59.956Z,191.91
2023-04-27T04:47:00.023Z,194.70
2023-04-27T04:48:00.046Z,192.91
2023-04-27T04:48:59.978Z,194.22
2023-04-27T04:49:59.997Z,193.18
2023-04-27T04:51:00.015Z,192.15
2023-04-27T04:52:00.027Z,195.02
2023-04-27T04:53:00.850Z,194.95
2023-04-27T04:54:01.729Z,195.18
2023-04-27T04:55:00.030Z,196.96
2023-04-27T04:56:00.066Z,197.05
2023-04-27T04:57:00.034Z,195.49
2023-04-27T04:58:00.048Z,191.21
2023-04-27T04:59:00.031Z,196.59
2023-04-27T05:00:00.040Z,195.00
2023-04-27T05:01:00.037Z,194.21
2023-04-27T05:02:00.166Z,194.80
2023-04-27T05:03:02.164Z,194.16
2023-04-27T05:04:00.237Z,194.37
2023-04-27T05:05:00.180Z,197.47
2023-04-27T05:06:00.092Z,193.70
2023-04-27T05:07:00.051Z,193.82
2023-04-27T05:08:00.809Z,193.11
2023-04-27T05:09:00.080Z,195.36
2023-04-27T05:10:00.170Z,194.47
2023-04-27T05:11:00.093Z,196.28
2023-04-27T05:12:00.085Z,196.78
2023-04-27T05:13:00.091Z,197.09
2023-04-27T05:14:00.084Z,192.78
2023-04-27T05:15:00.079Z,193.56
2023-04-27T05:16:00.153Z,195.27
2023-04-27T05:17:01.072Z,193.73
2023-04-27T05:18:00.172Z,195.31
2023-04-27T05:19:00.076Z,194.23
2023-04-27T05:20:00.125Z,197.40
2023-04-27T05:21:00.104Z,194.95
2023-04-27T05:22:00.121Z,193.74
2023-04-27T05:23:00.130Z,194.15
2023-04-27T05:24:02.060Z,193.56
2023-04-27T05:25:00.160Z,194.46
2023-04-27T05:26:00.134Z,193.34
2023-04-27T05:27:01.531Z,198.37
2023-04-27T05:28:00.185Z,213.39
2023-04-27T05:29:00.124Z,222.12
2023-04-27T05:30:00.188Z,221.71
2023-04-27T05:31:01.047Z,228.89
2023-04-27T05:32:00.277Z,234.38
2023-04-27T05:33:00.242Z,240.49
2023-04-27T05:34:00.171Z,245.26
2023-04-27T05:35:00.263Z,250.00
2023-04-27T05:36:00.270Z,244.87
2023-04-27T05:37:00.253Z,244.84
2023-04-27T05:38:00.289Z,250.00
2023-04-27T05:39:00.310Z,249.46
2023-04-27T05:40:00.319Z,250.00
2023-04-27T05:41:00.336Z,250.00
2023-04-27T05:42:00.393Z,250.00
2023-04-27T05:43:00.414Z,250.37
2023-04-27T05:44:00.441Z,250.00
2023-04-27T05:45:00.526Z,248.63
2023-04-27T05:46:00.546Z,248.03
2023-04-27T05:47:00.505Z,249.11
2023-04-27T05:48:00.572Z,250.00
2023-04-27T05:49:00.693Z,249.75
2023-04-27T05:50:00.558Z,249.49
2023-04-27T05:51:00.555Z,248.21
2023-04-27T05:52:00.548Z,246.74
2023-04-27T05:53:00.544Z,249.31
2023-04-27T05:54:00.563Z,248.96
2023-04-27T05:55:00.552Z,247.02
2023-04-27T05:56:00.570Z,249.56
2023-04-27T05:57:00.585Z,245.50
2023-04-27T05:58:07.793Z,244.13
2023-04-27T05:59:10.745Z,244.23
2023-04-27T06:00:01.542Z,244.37
2023-04-27T06:01:00.541Z,244.17
2023-04-27T06:02:00.523Z,245.70
2023-04-27T06:03:00.629Z,245.82
2023-04-27T06:04:00.607Z,243.60
2023-04-27T06:05:00.478Z,245.37
2023-04-27T06:06:00.400Z,243.28
2023-04-27T06:07:00.389Z,242.40
2023-04-27T06:08:00.351Z,239.23
2023-04-27T06:09:00.334Z,235.19
2023-04-27T06:10:00.305Z,235.74
2023-04-27T06:11:00.282Z,235.37
2023-04-27T06:12:02.029Z,233.85
2023-04-27T06:13:00.221Z,234.04
2023-04-27T06:14:00.192Z,232.73
2023-04-27T06:15:00.212Z,230.53
2023-04-27T06:16:00.230Z,232.81
2023-04-27T06:17:00.260Z,233.20
2023-04-27T06:18:00.166Z,231.44
2023-04-27T06:19:00.111Z,232.42
2023-04-27T06:20:00.036Z,233.18
2023-04-27T06:21:00.015Z,230.81
2023-04-27T06:21:59.986Z,231.01
2023-04-27T06:22:59.973Z,226.67
2023-04-27T06:23:59.935Z,227.10
2023-04-27T06:24:59.922Z,226.40
2023-04-27T06:25:59.875Z,229.13
2023-04-27T06:26:59.853Z,230.54
2023-04-27T06:27:59.820Z,233.48
2023-04-27T06:28:59.790Z,232.86
2023-04-27T06:29:59.758Z,237.95
2023-04-27T06:30:59.733Z,239.17
2023-04-27T06:31:59.843Z,241.30
2023-04-27T06:32:59.895Z,245.61
2023-04-27T06:33:59.720Z,250.00
2023-04-27T06:34:59.747Z,250.00
2023-04-27T06:35:59.776Z,249.90
2023-04-27T06:36:59.786Z,250.00
2023-04-27T06:38:00.630Z,249.70
2023-04-27T06:38:59.891Z,250.00
2023-04-27T06:39:59.817Z,250.00
2023-04-27T06:40:59.821Z,250.00
2023-04-27T06:42:00.574Z,250.01
2023-04-27T06:42:59.822Z,249.74
2023-04-27T06:43:59.821Z,250.00
2023-04-27T06:44:59.823Z,249.24
2023-04-27T06:45:59.947Z,250.00
2023-04-27T06:47:00.498Z,249.87
2023-04-27T06:47:59.818Z,249.08
2023-04-27T06:48:59.780Z,249.81
2023-04-27T06:49:59.748Z,250.00
2023-04-27T06:50:59.746Z,250.00
2023-04-27T06:51:59.726Z,249.49
2023-04-27T06:52:59.692Z,248.60
2023-04-27T06:53:59.671Z,250.00
2023-04-27T06:54:59.653Z,250.00
2023-04-27T06:55:59.669Z,249.62
2023-04-27T06:56:59.592Z,248.72
2023-04-27T06:58:00.504Z,249.05
2023-04-27T06:58:59.560Z,248.42
2023-04-27T06:59:59.540Z,250.00
2023-04-27T07:00:59.528Z,248.54
2023-04-27T07:01:59.610Z,250.00
2023-04-27T07:02:59.552Z,249.89
2023-04-27T07:03:59.549Z,249.43
2023-04-27T07:04:59.517Z,249.81
2023-04-27T07:05:59.415Z,250.00
2023-04-27T07:06:59.402Z,250.00
2023-04-27T07:08:02.473Z,248.93
2023-04-27T07:08:59.362Z,249.06
2023-04-27T07:09:59.319Z,249.75
2023-04-27T07:10:59.300Z,250.94
2023-04-27T07:11:59.248Z,253.52
2023-04-27T07:12:59.214Z,259.51
2023-04-27T07:13:59.193Z,250.00
2023-04-27T07:14:59.153Z,249.64
2023-04-27T07:16:01.062Z,249.68
2023-04-27T07:16:59.067Z,249.73
2023-04-27T07:17:59.048Z,249.65
2023-04-27T07:18:58.983Z,250.19
2023-04-27T07:19:59.583Z,254.25
2023-04-27T07:20:58.914Z,249.73
2023-04-27T07:21:59.879Z,249.86
2023-04-27T07:22:59.831Z,249.90
2023-04-27T07:23:58.797Z,228.99
2023-04-27T07:24:58.757Z,211.75
2023-04-27T07:25:58.750Z,197.09
2023-04-27T07:26:58.709Z,182.10
2023-04-27T07:27:59.519Z,171.13
2023-04-27T07:28:58.646Z,162.47
2023-04-27T07:29:58.627Z,160.25
2023-04-27T07:30:58.611Z,160.06
2023-04-27T07:31:58.652Z,163.08
2023-04-27T07:32:58.635Z,170.04
2023-04-27T07:33:58.519Z,176.06
2023-04-27T07:34:58.487Z,182.77
2023-04-27T07:35:58.459Z,189.75
2023-04-27T07:36:58.429Z,191.85
2023-04-27T07:37:58.411Z,198.53
2023-04-27T07:38:58.368Z,202.99
2023-04-27T07:39:58.365Z,206.41
2023-04-27T07:40:58.341Z,209.25
2023-04-27T07:41:58.256Z,212.76
2023-04-27T07:42:58.218Z,216.06
2023-04-27T07:43:58.173Z,218.64
2023-04-27T07:44:58.123Z,220.59
2023-04-27T07:45:58.113Z,224.58
2023-04-27T07:46:59.018Z,204.15
2023-04-27T07:47:58.912Z,182.51
2023-04-27T07:48:57.978Z,172.37
2023-04-27T07:49:57.950Z,159.20
2023-04-27T07:50:57.910Z,152.49
2023-04-27T07:51:57.881Z,141.54
2023-04-27T07:52:57.955Z,133.42
2023-04-27T07:53:57.817Z,124.87
2023-04-27T07:54:57.802Z,117.83
2023-04-27T07:55:57.765Z,110.19
2023-04-27T07:56:57.724Z,107.64
2023-04-27T07:57:57.721Z,104.55
2023-04-27T07:58:57.721Z,97.92
2023-04-27T07:59:57.738Z,93.93
2023-04-27T08:00:57.778Z,96.57
2023-04-27T08:02:11.232Z,90.03
2023-04-27T08:02:58.888Z,88.01
2023-04-27T08:03:57.955Z,86.46
2023-04-27T08:04:58.121Z,84.16
2023-04-27T08:05:58.153Z,81.29
2023-04-27T08:06:58.090Z,78.80
2023-04-27T08:07:57.745Z,75.96
2023-04-27T08:08:57.636Z,74.64
2023-04-27T08:09:57.603Z,73.69
2023-04-27T08:10:57.602Z,71.52
2023-04-27T08:11:57.588Z,79.30
2023-04-27T08:12:58.026Z,80.25
2023-04-27T08:13:59.036Z,83.81
2023-04-27T08:14:58.622Z,83.41
2023-04-27T08:15:58.609Z,84.16
2023-04-27T08:16:57.734Z,84.39
2023-04-27T08:17:57.684Z,80.32
2023-04-27T08:18:58.655Z,83.47
2023-04-27T08:19:57.651Z,83.36
2023-04-27T08:20:57.632Z,78.07
2023-04-27T08:21:57.599Z,68.61
2023-04-27T08:22:57.560Z,57.79
2023-04-27T08:23:57.544Z,43.58
2023-04-27T08:24:57.522Z,36.88
2023-04-27T08:25:57.511Z,37.34
2023-04-27T08:26:57.509Z,39.94
2023-04-27T08:27:57.479Z,41.57
2023-04-27T08:28:57.471Z,42.32
2023-04-27T08:29:57.484Z,42.87
2023-04-27T08:30:57.464Z,43.44
2023-04-27T08:31:57.538Z,45.77
2023-04-27T08:32:57.445Z,46.21
2023-04-27T08:33:57.384Z,48.64
2023-04-27T08:34:57.362Z,51.95
2023-04-27T08:35:57.347Z,53.82
2023-04-27T08:36:57.330Z,54.61
2023-04-27T08:37:57.333Z,57.93
2023-04-27T08:38:57.280Z,62.94
2023-04-27T08:39:57.267Z,66.51
2023-04-27T08:41:00.863Z,68.30
2023-04-27T08:41:58.199Z,68.49
2023-04-27T08:42:57.199Z,69.62
2023-04-27T08:43:58.475Z,71.63
2023-04-27T08:44:57.150Z,75.08
2023-04-27T08:45:57.163Z,81.41
2023-04-27T08:46:57.169Z,82.36
2023-04-27T08:47:57.175Z,80.03
2023-04-27T08:48:57.179Z,78.61
2023-04-27T08:49:57.185Z,72.32
2023-04-27T08:50:58.121Z,78.49
2023-04-27T08:51:57.202Z,81.20
2023-04-27T08:52:57.327Z,83.82
2023-04-27T08:53:57.214Z,86.93
2023-04-27T08:54:58.050Z,94.31
2023-04-27T08:55:57.185Z,99.23
2023-04-27T08:56:58.126Z,95.41
2023-04-27T08:57:57.170Z,96.73
2023-04-27T08:58:58.056Z,101.70
2023-04-27T08:59:57.158Z,106.34
2023-04-27T09:00:57.166Z,107.85
2023-04-27T09:01:57.166Z,106.71
2023-04-27T09:02:57.264Z,102.90
2023-04-27T09:03:57.217Z,107.81
2023-04-27T09:04:57.256Z,110.87
2023-04-27T09:06:04.589Z,112.73
2023-04-27T09:06:58.002Z,112.91
2023-04-27T09:07:56.973Z,113.75
2023-04-27T09:08:56.940Z,115.46
2023-04-27T09:09:56.908Z,118.81
2023-04-27T09:10:56.916Z,124.31
2023-04-27T09:11:56.834Z,125.85
2023-04-27T09:12:56.811Z,127.70
2023-04-27T09:13:56.776Z,130.45
2023-04-27T09:14:56.754Z,129.73
2023-04-27T09:15:56.741Z,117.88
2023-04-27T09:16:56.702Z,113.71
2023-04-27T09:17:56.783Z,119.19
2023-04-27T09:18:56.640Z,118.89
2023-04-27T09:19:56.606Z,121.46
2023-04-27T09:20:56.587Z,123.00
2023-04-27T09:21:56.565Z,123.37
2023-04-27T09:22:56.537Z,122.43
2023-04-27T09:23:56.522Z,124.48
2023-04-27T09:24:56.484Z,125.65
2023-04-27T09:25:57.148Z,125.13
2023-04-27T09:26:58.982Z,125.69
2023-04-27T09:27:56.419Z,127.17
2023-04-27T09:28:56.381Z,126.82
2023-04-27T09:29:56.353Z,126.85
2023-04-27T09:30:56.338Z,127.14
2023-04-27T09:31:56.351Z,129.27
2023-04-27T09:32:56.385Z,129.11
2023-04-27T09:33:56.245Z,129.31
2023-04-27T09:34:56.219Z,129.77
2023-04-27T09:35:56.209Z,130.59
2023-04-27T09:36:56.162Z,131.42
2023-04-27T09:37:56.122Z,131.70
2023-04-27T09:38:56.100Z,132.31
2023-04-27T09:39:56.072Z,132.10
2023-04-27T09:40:56.638Z,132.82
2023-04-27T09:41:56.020Z,132.88
2023-04-27T09:42:55.976Z,133.86
2023-04-27T09:43:57.834Z,134.32
2023-04-27T09:44:55.926Z,136.47
2023-04-27T09:45:55.952Z,135.32
2023-04-27T09:46:55.867Z,136.21
2023-04-27T09:47:55.883Z,137.26
2023-04-27T09:48:55.831Z,137.02
2023-04-27T09:49:55.792Z,137.19
2023-04-27T09:50:55.775Z,137.60
2023-04-27T09:51:55.744Z,138.26
2023-04-27T09:52:55.709Z,137.15
2023-04-27T09:53:55.675Z,138.33
2023-04-27T09:54:55.660Z,138.73
2023-04-27T09:55:55.659Z,139.17
2023-04-27T09:56:55.608Z,140.07
2023-04-27T09:57:55.563Z,140.26
2023-04-27T09:58:55.540Z,138.75
2023-04-27T09:59:55.515Z,140.34
2023-04-27T10:00:55.514Z,140.62
2023-04-27T10:01:55.461Z,140.06
2023-04-27T10:02:55.614Z,141.00
2023-04-27T10:03:55.604Z,141.85
2023-04-27T10:04:55.427Z,141.58
2023-04-27T10:05:55.371Z,142.10
2023-04-27T10:06:57.725Z,141.28
2023-04-27T10:07:55.492Z,141.40
2023-04-27T10:08:55.483Z,141.92
2023-04-27T10:09:55.462Z,142.10
2023-04-27T10:10:55.450Z,141.67
2023-04-27T10:11:55.449Z,143.42
2023-04-27T10:12:55.463Z,143.31
2023-04-27T10:13:55.471Z,142.76
2023-04-27T10:14:55.391Z,143.19
2023-04-27T10:15:55.390Z,144.24
2023-04-27T10:16:55.423Z,144.54
2023-04-27T10:17:55.395Z,143.49
2023-04-27T10:18:55.347Z,145.02
2023-04-27T10:19:57.336Z,143.30
2023-04-27T10:20:55.287Z,144.80
2023-04-27T10:21:55.251Z,144.95
2023-04-27T10:22:55.223Z,144.61
2023-04-27T10:23:55.213Z,145.88
2023-04-27T10:24:55.170Z,145.16
2023-04-27T10:25:55.135Z,144.22
2023-04-27T10:26:55.161Z,143.28
2023-04-27T10:27:55.072Z,143.68
2023-04-27T10:28:55.042Z,144.09
2023-04-27T10:29:55.017Z,144.69
2023-04-27T10:30:55.030Z,144.39
2023-04-27T10:31:54.961Z,143.10
2023-04-27T10:32:54.953Z,144.29
2023-04-27T10:33:54.896Z,142.78
2023-04-27T10:34:54.873Z,144.29
2023-04-27T10:35:54.870Z,145.05
2023-04-27T10:36:54.827Z,144.89
2023-04-27T10:37:54.794Z,143.38
2023-04-27T10:38:54.778Z,144.49
2023-04-27T10:39:55.032Z,144.28
2023-04-27T10:40:54.732Z,144.31
2023-04-27T10:41:54.711Z,143.59
2023-04-27T10:42:54.694Z,144.23
2023-04-27T10:43:54.665Z,143.48
2023-04-27T10:44:54.651Z,142.95
2023-04-27T10:45:54.638Z,143.96
2023-04-27T10:46:54.598Z,142.82
2023-04-27T10:47:54.589Z,142.95
2023-04-27T10:48:54.538Z,142.70
2023-04-27T10:49:54.539Z,143.07
2023-04-27T10:50:54.498Z,142.21
2023-04-27T10:51:54.463Z,141.79
2023-04-27T10:52:54.429Z,143.56
2023-04-27T10:53:54.405Z,143.24
2023-04-27T10:54:54.372Z,143.11
2023-04-27T10:55:54.402Z,143.92
2023-04-27T10:56:54.384Z,144.14
2023-04-27T10:57:54.307Z,144.08
2023-04-27T10:58:54.292Z,143.84
2023-04-27T10:59:54.260Z,144.26
2023-04-27T11:00:54.255Z,144.30
2023-04-27T11:01:54.290Z,144.67
2023-04-27T11:02:54.309Z,143.78
2023-04-27T11:03:54.215Z,144.37
2023-04-27T11:05:54.250Z,144.23
2023-04-27T11:06:54.118Z,144.80
2023-04-27T11:07:54.086Z,145.23
2023-04-27T11:08:54.061Z,146.54
2023-04-27T11:09:54.044Z,145.57
2023-04-27T11:10:54.016Z,146.14
2023-04-27T11:11:53.986Z,145.52
2023-04-27T11:12:53.955Z,146.06
2023-04-27T11:13:53.935Z,146.06
2023-04-27T11:14:53.919Z,145.73
2023-04-27T11:15:53.930Z,145.18
2023-04-27T11:16:53.872Z,145.25
2023-04-27T11:17:53.860Z,144.81
2023-04-27T11:18:53.813Z,145.05
2023-04-27T11:19:53.790Z,144.19
2023-04-27T11:20:53.769Z,144.39
2023-04-27T11:21:53.756Z,143.25
2023-04-27T11:22:53.717Z,143.08
2023-04-27T11:23:53.693Z,143.12
2023-04-27T11:24:53.684Z,143.00
2023-04-27T11:25:53.663Z,144.55
2023-04-27T11:26:53.613Z,143.40
2023-04-27T11:27:53.581Z,143.93
2023-04-27T11:28:53.579Z,144.34
2023-04-27T11:29:53.546Z,145.71
2023-04-27T11:30:53.529Z,144.91
2023-04-27T11:31:53.562Z,145.13
2023-04-27T11:32:53.506Z,145.04
2023-04-27T11:33:53.453Z,144.83
2023-04-27T11:34:54.298Z,145.42
2023-04-27T11:35:53.403Z,146.43
2023-04-27T11:36:55.496Z,144.78
2023-04-27T11:37:54.372Z,144.93
2023-04-27T11:38:53.321Z,145.06
2023-04-27T11:39:53.325Z,145.08
2023-04-27T11:40:53.273Z,145.65
2023-04-27T11:41:53.247Z,145.83
2023-04-27T11:42:53.240Z,144.95
2023-04-27T11:43:53.195Z,145.08
2023-04-27T11:44:53.172Z,144.40
2023-04-27T11:45:53.156Z,143.61
2023-04-27T11:46:53.220Z,145.37
2023-04-27T11:47:53.132Z,144.72
2023-04-27T11:48:53.065Z,144.44
2023-04-27T11:49:53.041Z,146.67
2023-04-27T11:50:53.232Z,146.56
2023-04-27T11:51:53.004Z,145.97
2023-04-27T11:52:52.965Z,145.35
2023-04-27T11:53:52.926Z,144.88
2023-04-27T11:54:52.898Z,144.97
2023-04-27T11:55:52.876Z,145.33
2023-04-27T11:56:52.846Z,145.68
2023-04-27T11:57:52.814Z,145.51
2023-04-27T11:58:52.785Z,145.86
2023-04-27T11:59:52.751Z,145.54
2023-04-27T12:00:52.726Z,146.05
2023-04-27T12:01:52.724Z,146.39
2023-04-27T12:02:52.797Z,145.46
2023-04-27T12:03:52.825Z,146.07
2023-04-27T12:04:52.888Z,145.84
2023-04-27T12:05:53.541Z,146.57
2023-04-27T12:06:52.570Z,146.73
2023-04-27T12:07:52.539Z,145.60
2023-04-27T12:08:52.501Z,145.15
2023-04-27T12:09:52.488Z,146.26
2023-04-27T12:10:52.458Z,146.61
2023-04-27T12:11:52.428Z,146.62
2023-04-27T12:12:52.400Z,146.19
2023-04-27T12:13:52.381Z,146.33
2023-04-27T12:14:52.354Z,145.74
2023-04-27T12:15:52.326Z,146.55
2023-04-27T12:16:52.374Z,145.32
2023-04-27T12:17:52.347Z,145.66
2023-04-27T12:18:52.316Z,145.15
2023-04-27T12:19:52.306Z,145.28
2023-04-27T12:20:52.289Z,145.45
2023-04-27T12:21:52.298Z,145.95
2023-04-27T12:22:52.309Z,145.95
2023-04-27T12:23:52.306Z,145.06
2023-04-27T12:24:52.313Z,144.47
2023-04-27T12:25:52.306Z,145.02
2023-04-27T12:26:52.313Z,145.42
2023-04-27T12:27:52.310Z,145.49
2023-04-27T12:28:52.359Z,145.09
2023-04-27T12:29:52.387Z,144.77
2023-04-27T12:30:52.339Z,143.96
2023-04-27T12:31:52.323Z,144.07